| time (UTC) | temp C | wind direction | speed KPH | gust KPH | rain 1hr cm | rain 24hr cm | rain mn cm | humidity % | barometer mb |
| 20260506214102 | 7 | 0 | 0.0 | 0.0 | 0.00 | 0.97 | 0.94 | 93 | 1011.9 |
| 20260506213100 | 7 | 0 | 0.0 | 0.0 | 0.00 | 0.97 | 0.94 | 91 | 1011.8 |
| 20260506212102 | 7 | 0 | 0.0 | 0.0 | 0.00 | 0.99 | 0.94 | 91 | 1011.7 |
| 20260506211104 | 8 | 0 | 0.0 | 0.0 | 0.00 | 0.99 | 0.94 | 90 | 1011.6 |
| 20260506205101 | 8 | 0 | 0.0 | 0.0 | 0.00 | 1.04 | 0.94 | 88 | 1011.4 |
| 20260506204101 | 8 | 0 | 0.0 | 0.0 | 0.00 | 1.07 | 0.94 | 88 | 1011.2 |
| 20260506203104 | 8 | 0 | 0.0 | 0.0 | 0.00 | 1.09 | 0.94 | 87 | 1011.1 |
| 20260506202102 | 8 | 0 | 0.0 | 0.0 | 0.00 | 1.09 | 0.94 | 85 | 1011.0 |
| 20260506201108 | 8 | 0 | 0.0 | 0.0 | 0.00 | 1.09 | 0.94 | 85 | 1010.9 |
| 20260506195102 | 9 | 0 | 0.0 | 0.0 | 0.00 | 1.12 | 0.94 | 88 | 1010.7 |
| 20260506194103 | 9 | 0 | 0.0 | 0.0 | 0.00 | 1.12 | 0.94 | 94 | 1010.7 |
| 20260506193102 | 9 | 0 | 0.0 | 0.0 | 0.00 | 1.14 | 0.94 | 94 | 1010.5 |
| 20260506191100 | 9 | 0 | 0.0 | 0.0 | 0.00 | 1.14 | 0.94 | 94 | 1010.3 |
| 20260506190103 | 9 | 0 | 0.0 | 0.0 | 0.00 | 1.17 | 0.94 | 94 | 1010.2 |
| 20260506185102 | 10 | 0 | 0.0 | 0.0 | 0.00 | 1.17 | 0.94 | 93 | 1010.1 |
| 20260506184059 | 10 | 0 | 0.0 | 0.0 | 0.00 | 1.17 | 0.94 | 92 | 1010.0 |
| 20260506182102 | 10 | 0 | 0.0 | 0.0 | 0.00 | 1.19 | 0.94 | 91 | 1009.8 |
| 20260506181100 | 10 | 0 | 0.0 | 0.0 | 0.00 | 1.19 | 0.94 | 90 | 1009.6 |
| 20260506174100 | 10 | 0 | 0.0 | 0.0 | 0.00 | 1.27 | 0.94 | 89 | 1009.3 |
| 20260506173059 | 10 | 0 | 0.0 | 0.0 | 0.00 | 1.27 | 0.94 | 90 | 1009.2 |
| 20260506172101 | 10 | 0 | 0.0 | 0.0 | 0.00 | 1.27 | 0.94 | 93 | 1009.1 |
| 20260506171100 | 10 | 0 | 0.0 | 0.0 | 0.00 | 1.27 | 0.94 | 94 | 1009.0 |
| 20260506170058 | 10 | 0 | 0.0 | 0.0 | 0.00 | 1.27 | 0.94 | 95 | 1009.0 |
| 20260506165057 | 10 | 0 | 0.0 | 0.0 | 0.00 | 1.27 | 0.94 | 94 | 1008.9 |
| 20260506164059 | 10 | 0 | 0.0 | 0.0 | 0.00 | 1.27 | 0.94 | 95 | 1008.8 |
| 20260506163059 | 10 | 0 | 0.0 | 0.0 | 0.00 | 1.27 | 0.94 | 93 | 1008.9 |
| 20260506162101 | 10 | 0 | 0.0 | 0.0 | 0.00 | 1.27 | 0.94 | 92 | 1008.9 |
| 20260506160057 | 10 | 0 | 0.0 | 0.0 | 0.00 | 1.27 | 0.94 | 94 | 1008.9 |
| 20260506155059 | 10 | 0 | 0.0 | 0.0 | 0.00 | 1.27 | 0.94 | 94 | 1008.9 |
| 20260506154101 | 11 | 0 | 0.0 | 0.0 | 0.00 | 1.27 | 0.94 | 92 | 1008.9 |
| 20260506151101 | 10 | 0 | 0.0 | 0.0 | 0.00 | 1.27 | 0.94 | 92 | 1008.9 |
| 20260506150058 | 10 | 0 | 0.0 | 0.0 | 0.00 | 1.27 | 0.94 | 92 | 1008.9 |
| 20260506145059 | 10 | 0 | 0.0 | 0.0 | 0.00 | 1.27 | 0.94 | 91 | 1008.8 |
| 20260506143057 | 11 | 0 | 0.0 | 0.0 | 0.00 | 1.27 | 0.94 | 91 | 1008.7 |
| 20260506142058 | 10 | 0 | 0.0 | 0.0 | 0.00 | 1.27 | 0.94 | 94 | 1008.8 |
| 20260506141057 | 10 | 0 | 0.0 | 0.0 | 0.00 | 1.27 | 0.94 | 93 | 1008.9 |
| 20260506140106 | 10 | 0 | 0.0 | 0.0 | 0.00 | 1.27 | 0.94 | 93 | 1008.9 |
| 20260506135059 | 10 | 0 | 0.0 | 0.0 | 0.00 | 1.27 | 0.94 | 93 | 1008.9 |
| 20260506134059 | 10 | 0 | 0.0 | 0.0 | 0.00 | 1.27 | 0.94 | 93 | 1008.9 |
| 20260506133058 | 10 | 0 | 0.0 | 0.0 | 0.00 | 1.27 | 0.94 | 93 | 1008.9 |
| 20260506132058 | 10 | 0 | 0.0 | 0.0 | 0.00 | 1.27 | 0.94 | 93 | 1008.8 |
| 20260506131059 | 10 | 0 | 0.0 | 0.0 | 0.00 | 1.27 | 0.94 | 93 | 1008.7 |
| 20260506130058 | 11 | 0 | 0.0 | 0.0 | 0.00 | 1.27 | 0.94 | 93 | 1008.6 |
| 20260506125057 | 10 | 0 | 0.0 | 0.0 | 0.00 | 1.27 | 0.94 | 93 | 1008.6 |
| 20260506122057 | 10 | 0 | 0.0 | 0.0 | 0.00 | 1.27 | 0.94 | 94 | 1008.5 |
| 20260506121055 | 10 | 0 | 0.0 | 0.0 | 0.00 | 1.27 | 0.94 | 96 | 1008.4 |
| 20260506120056 | 10 | 0 | 0.0 | 0.0 | 0.00 | 1.27 | 0.94 | 96 | 1008.4 |
| 20260506115057 | 10 | 0 | 0.0 | 0.0 | 0.00 | 1.27 | 0.94 | 97 | 1008.4 |
| 20260506114058 | 10 | 0 | 0.0 | 0.0 | 0.00 | 1.27 | 0.94 | 99 | 1008.4 |
| 20260506113059 | 10 | 0 | 0.0 | 0.0 | 0.00 | 1.27 | 0.94 | 10 | 1008.4 |
| 20260506112059 | 9 | 0 | 0.0 | 0.0 | 0.00 | 1.27 | 0.94 | 10 | 1008.4 |
| 20260506111058 | 9 | 0 | 0.0 | 0.0 | 0.00 | 1.27 | 0.94 | 10 | 1008.4 |
| 20260506110058 | 8 | 0 | 0.0 | 0.0 | 0.03 | 1.27 | 0.94 | 10 | 1008.5 |
| 20260506105055 | 8 | 0 | 0.0 | 0.0 | 0.03 | 1.27 | 0.94 | 10 | 1008.6 |
| 20260506101057 | 8 | 0 | 0.0 | 0.0 | 0.08 | 1.27 | 0.94 | 10 | 1008.5 |
| 20260506100056 | 8 | 0 | 0.0 | 0.0 | 0.08 | 1.27 | 0.94 | 10 | 1008.3 |
| 20260506095057 | 8 | 0 | 0.0 | 0.0 | 0.08 | 1.27 | 0.91 | 10 | 1008.3 |
| 20260506094058 | 8 | 0 | 0.0 | 0.0 | 0.08 | 1.27 | 0.91 | 10 | 1008.2 |
| 20260506093057 | 8 | 0 | 0.0 | 0.0 | 0.05 | 1.24 | 0.89 | 10 | 1008.2 |
| 20260506092057 | 7 | 0 | 0.0 | 0.0 | 0.05 | 1.27 | 0.89 | 10 | 1008.1 |
| 20260506091056 | 7 | 0 | 0.0 | 0.0 | 0.05 | 1.24 | 0.89 | 10 | 1008.1 |
| 20260506090059 | 7 | 0 | 0.0 | 0.0 | 0.03 | 1.22 | 0.86 | 10 | 1008.0 |
| 20260506085057 | 7 | 0 | 0.0 | 0.0 | 0.05 | 1.22 | 0.86 | 10 | 1008.0 |
| 20260506084056 | 7 | 0 | 0.0 | 0.0 | 0.03 | 1.19 | 0.84 | 10 | 1007.9 |
| 20260506083055 | 7 | 0 | 0.0 | 0.0 | 0.03 | 1.19 | 0.84 | 10 | 1007.8 |
| 20260506082056 | 7 | 0 | 0.0 | 0.0 | 0.03 | 1.19 | 0.84 | 10 | 1007.7 |
| 20260506073056 | 7 | 0 | 0.0 | 0.0 | 0.05 | 1.17 | 0.81 | 10 | 1007.4 |
| 20260506072054 | 7 | 0 | 0.0 | 0.0 | 0.05 | 1.19 | 0.81 | 10 | 1007.3 |
| 20260506071056 | 7 | 0 | 0.0 | 0.0 | 0.08 | 1.19 | 0.81 | 10 | 1007.3 |
| 20260506062055 | 6 | 0 | 0.0 | 0.0 | 0.15 | 1.17 | 0.79 | 10 | 1007.2 |
| 20260506045053 | 7 | 0 | 0.0 | 0.0 | 0.13 | 0.97 | 0.58 | 10 | 1007.1 |
| 20260506044055 | 7 | 0 | 0.0 | 0.0 | 0.13 | 0.94 | 0.56 | 10 | 1007.1 |
| 20260506043057 | 7 | 0 | 0.0 | 0.0 | 0.10 | 0.91 | 0.53 | 10 | 1007.0 |
| 20260506042053 | 7 | 0 | 0.0 | 0.0 | 0.10 | 0.91 | 0.51 | 10 | 1007.0 |
| 20260506041055 | 7 | 0 | 0.0 | 0.0 | 0.08 | 0.89 | 0.51 | 10 | 1006.9 |
| 20260506040055 | 7 | 0 | 0.0 | 0.0 | 0.05 | 0.89 | 0.48 | 10 | 1006.9 |
| 20260506035057 | 7 | 0 | 0.0 | 0.0 | 0.05 | 0.86 | 0.46 | 10 | 1006.9 |
| 20260506034058 | 7 | 0 | 0.0 | 0.0 | 0.05 | 0.86 | 0.46 | 10 | 1006.9 |
| 20260506033054 | 7 | 0 | 0.0 | 0.0 | 0.05 | 0.84 | 0.43 | 10 | 1006.9 |
| 20260506032054 | 7 | 0 | 0.0 | 0.0 | 0.08 | 0.84 | 0.43 | 10 | 1007.0 |
| 20260506031055 | 7 | 0 | 0.0 | 0.0 | 0.08 | 0.81 | 0.43 | 10 | 1007.0 |
| 20260506030053 | 7 | 0 | 0.0 | 0.0 | 0.10 | 0.81 | 0.43 | 10 | 1007.1 |
| 20260506025056 | 7 | 0 | 0.0 | 0.0 | 0.10 | 0.81 | 0.43 | 10 | 1007.1 |
| 20260506023057 | 7 | 0 | 0.0 | 0.0 | 0.13 | 0.79 | 0.41 | 10 | 1007.1 |
| 20260506021056 | 7 | 0 | 0.0 | 0.0 | 0.10 | 0.76 | 0.36 | 10 | 1007.1 |
| 20260506020056 | 7 | 0 | 0.0 | 0.0 | 0.10 | 0.74 | 0.33 | 10 | 1007.1 |
| 20260506015057 | 7 | 0 | 0.0 | 0.0 | 0.10 | 0.71 | 0.33 | 10 | 1007.1 |
| 20260506014055 | 7 | 0 | 0.0 | 0.0 | 0.13 | 0.71 | 0.33 | 10 | 1007.1 |
| 20260506013055 | 7 | 0 | 0.0 | 0.0 | 0.13 | 0.71 | 0.30 | 10 | 1007.1 |
| 20260506011055 | 8 | 0 | 0.0 | 0.0 | 0.13 | 0.69 | 0.28 | 10 | 1007.1 |
| 20260506010051 | 8 | 0 | 0.0 | 0.0 | 0.13 | 0.66 | 0.25 | 10 | 1007.1 |
| 20260506004055 | 8 | 0 | 0.0 | 0.0 | 0.13 | 0.61 | 0.23 | 10 | 1007.2 |
| 20260506003053 | 8 | 0 | 0.0 | 0.0 | 0.10 | 0.61 | 0.20 | 10 | 1007.3 |
| 20260506002057 | 8 | 0 | 0.0 | 0.0 | 0.10 | 0.58 | 0.18 | 10 | 1007.3 |
| 20260506000058 | 8 | 0 | 0.0 | 0.0 | 0.10 | 0.56 | 0.15 | 10 | 1007.4 |
| 20260505235059 | 8 | 0 | 0.0 | 0.0 | 0.08 | 0.53 | 0.15 | 10 | 1007.5 |
| 20260505234059 | 8 | 0 | 0.0 | 0.0 | 0.05 | 0.51 | 0.13 | 10 | 1007.5 |
| 20260505233058 | 8 | 0 | 0.0 | 0.0 | 0.05 | 0.51 | 0.10 | 10 | 1007.6 |
| 20260505232059 | 8 | 0 | 0.0 | 0.0 | 0.08 | 0.51 | 0.10 | 10 | 1007.6 |
| 20260505231100 | 8 | 0 | 0.0 | 0.0 | 0.05 | 0.48 | 0.08 | 10 | 1007.7 |
| 20260505230059 | 8 | 0 | 0.0 | 0.0 | 0.08 | 0.48 | 0.08 | 10 | 1007.7 |
| 20260505224059 | 8 | 0 | 0.0 | 0.0 | 0.08 | 0.46 | 0.05 | 10 | 1007.7 |
| 20260505223058 | 8 | 0 | 0.0 | 0.0 | 0.08 | 0.46 | 0.05 | 10 | 1007.7 |
| 20260505222059 | 8 | 0 | 0.0 | 0.0 | 0.08 | 0.43 | 0.05 | 10 | 1007.7 |
| 20260505221101 | 8 | 0 | 0.0 | 0.0 | 0.08 | 0.43 | 0.03 | 10 | 1007.7 |
| 20260505220059 | 8 | 0 | 0.0 | 0.0 | 0.10 | 0.43 | 0.03 | 10 | 1007.8 |